sensor_id;sensor_type;location;lat;lon;timestamp;P1;durP1;ratioP1;P2;durP2;ratioP2
30337;SDS011;17143;51.888;5.408;2022-12-18T00:10:11;34.67;;;16.40;;
30337;SDS011;17143;51.888;5.408;2022-12-18T00:25:13;34.17;;;14.17;;
30337;SDS011;17143;51.888;5.408;2022-12-18T00:40:15;25.70;;;12.33;;
30337;SDS011;17143;51.888;5.408;2022-12-18T00:55:18;27.80;;;12.52;;
30337;SDS011;17143;51.888;5.408;2022-12-18T01:10:22;31.45;;;12.18;;
30337;SDS011;17143;51.888;5.408;2022-12-18T01:25:25;30.23;;;13.40;;
30337;SDS011;17143;51.888;5.408;2022-12-18T01:40:28;34.92;;;13.55;;
30337;SDS011;17143;51.888;5.408;2022-12-18T01:55:30;35.90;;;15.47;;
30337;SDS011;17143;51.888;5.408;2022-12-18T02:10:38;26.33;;;13.15;;
30337;SDS011;17143;51.888;5.408;2022-12-18T02:41:18;27.90;;;13.27;;
30337;SDS011;17143;51.888;5.408;2022-12-18T02:56:23;21.83;;;11.15;;
30337;SDS011;17143;51.888;5.408;2022-12-18T03:11:32;24.40;;;11.15;;
30337;SDS011;17143;51.888;5.408;2022-12-18T03:26:41;14.57;;;7.22;;
30337;SDS011;17143;51.888;5.408;2022-12-18T03:41:48;17.50;;;8.52;;
30337;SDS011;17143;51.888;5.408;2022-12-18T03:57:28;16.30;;;9.27;;
30337;SDS011;17143;51.888;5.408;2022-12-18T04:12:33;14.80;;;6.32;;
30337;SDS011;17143;51.888;5.408;2022-12-18T04:27:36;18.95;;;7.95;;
30337;SDS011;17143;51.888;5.408;2022-12-18T04:42:40;16.95;;;8.80;;
30337;SDS011;17143;51.888;5.408;2022-12-18T04:57:42;18.00;;;7.85;;
30337;SDS011;17143;51.888;5.408;2022-12-18T05:12:44;18.42;;;8.07;;
30337;SDS011;17143;51.888;5.408;2022-12-18T05:27:46;12.00;;;7.07;;
30337;SDS011;17143;51.888;5.408;2022-12-18T05:42:48;12.93;;;6.13;;
30337;SDS011;17143;51.888;5.408;2022-12-18T05:57:50;13.10;;;5.97;;
30337;SDS011;17143;51.888;5.408;2022-12-18T06:12:52;10.27;;;6.15;;
30337;SDS011;17143;51.888;5.408;2022-12-18T06:27:54;6.75;;;4.47;;
30337;SDS011;17143;51.888;5.408;2022-12-18T06:42:56;11.30;;;6.85;;
30337;SDS011;17143;51.888;5.408;2022-12-18T06:57:58;10.27;;;4.75;;
30337;SDS011;17143;51.888;5.408;2022-12-18T07:13:00;10.52;;;6.32;;
30337;SDS011;17143;51.888;5.408;2022-12-18T07:28:02;16.40;;;6.82;;
30337;SDS011;17143;51.888;5.408;2022-12-18T07:43:05;18.33;;;7.18;;
30337;SDS011;17143;51.888;5.408;2022-12-18T07:58:07;16.33;;;8.20;;
30337;SDS011;17143;51.888;5.408;2022-12-18T08:13:09;11.00;;;6.38;;
30337;SDS011;17143;51.888;5.408;2022-12-18T08:28:11;15.10;;;6.63;;
30337;SDS011;17143;51.888;5.408;2022-12-18T08:43:13;14.73;;;7.55;;
30337;SDS011;17143;51.888;5.408;2022-12-18T08:58:15;9.70;;;5.75;;
30337;SDS011;17143;51.888;5.408;2022-12-18T09:13:17;16.63;;;6.93;;
30337;SDS011;17143;51.888;5.408;2022-12-18T09:28:20;19.23;;;9.10;;
30337;SDS011;17143;51.888;5.408;2022-12-18T09:43:23;18.45;;;8.07;;
30337;SDS011;17143;51.888;5.408;2022-12-18T09:58:30;16.63;;;7.95;;
30337;SDS011;17143;51.888;5.408;2022-12-18T10:13:37;14.00;;;7.10;;
30337;SDS011;17143;51.888;5.408;2022-12-18T10:28:45;18.57;;;9.77;;
30337;SDS011;17143;51.888;5.408;2022-12-18T10:43:47;9.70;;;6.73;;
30337;SDS011;17143;51.888;5.408;2022-12-18T10:58:56;14.43;;;7.50;;
30337;SDS011;17143;51.888;5.408;2022-12-18T11:14:01;16.20;;;7.63;;
30337;SDS011;17143;51.888;5.408;2022-12-18T11:29:09;21.60;;;9.60;;
30337;SDS011;17143;51.888;5.408;2022-12-18T11:44:18;24.37;;;9.50;;
30337;SDS011;17143;51.888;5.408;2022-12-18T11:59:29;24.20;;;10.33;;
30337;SDS011;17143;51.888;5.408;2022-12-18T12:14:42;21.30;;;10.10;;
30337;SDS011;17143;51.888;5.408;2022-12-18T12:29:58;21.07;;;9.47;;
30337;SDS011;17143;51.888;5.408;2022-12-18T12:45:06;20.50;;;10.20;;
30337;SDS011;17143;51.888;5.408;2022-12-18T13:00:19;21.93;;;9.13;;
30337;SDS011;17143;51.888;5.408;2022-12-18T13:15:22;15.13;;;8.57;;
30337;SDS011;17143;51.888;5.408;2022-12-18T13:30:43;15.43;;;6.47;;
30337;SDS011;17143;51.888;5.408;2022-12-18T13:45:58;19.03;;;9.80;;
30337;SDS011;17143;51.888;5.408;2022-12-18T14:01:02;18.83;;;8.93;;
30337;SDS011;17143;51.888;5.408;2022-12-18T14:16:05;18.30;;;9.57;;
30337;SDS011;17143;51.888;5.408;2022-12-18T14:31:16;27.03;;;11.87;;
30337;SDS011;17143;51.888;5.408;2022-12-18T14:46:30;21.43;;;7.63;;
30337;SDS011;17143;51.888;5.408;2022-12-18T15:01:36;18.13;;;9.60;;
30337;SDS011;17143;51.888;5.408;2022-12-18T15:16:40;18.20;;;8.90;;
30337;SDS011;17143;51.888;5.408;2022-12-18T15:31:42;14.27;;;8.97;;
30337;SDS011;17143;51.888;5.408;2022-12-18T15:46:44;18.17;;;9.20;;
30337;SDS011;17143;51.888;5.408;2022-12-18T16:01:47;19.30;;;8.87;;
30337;SDS011;17143;51.888;5.408;2022-12-18T16:16:51;20.83;;;9.80;;
30337;SDS011;17143;51.888;5.408;2022-12-18T16:31:56;11.70;;;6.63;;
30337;SDS011;17143;51.888;5.408;2022-12-18T16:46:58;18.47;;;9.87;;
30337;SDS011;17143;51.888;5.408;2022-12-18T17:02:01;19.93;;;10.27;;
30337;SDS011;17143;51.888;5.408;2022-12-18T17:17:03;18.67;;;9.70;;
30337;SDS011;17143;51.888;5.408;2022-12-18T17:32:05;22.33;;;10.23;;
30337;SDS011;17143;51.888;5.408;2022-12-18T17:47:07;22.67;;;9.37;;
30337;SDS011;17143;51.888;5.408;2022-12-18T18:02:10;16.53;;;9.20;;
30337;SDS011;17143;51.888;5.408;2022-12-18T18:17:12;21.37;;;9.70;;
30337;SDS011;17143;51.888;5.408;2022-12-18T18:32:14;28.33;;;10.90;;
30337;SDS011;17143;51.888;5.408;2022-12-18T18:47:16;22.03;;;10.50;;
30337;SDS011;17143;51.888;5.408;2022-12-18T19:02:18;22.37;;;10.37;;
30337;SDS011;17143;51.888;5.408;2022-12-18T19:17:20;26.30;;;10.23;;
30337;SDS011;17143;51.888;5.408;2022-12-18T19:32:22;20.73;;;10.03;;
30337;SDS011;17143;51.888;5.408;2022-12-18T19:47:25;20.47;;;11.13;;
30337;SDS011;17143;51.888;5.408;2022-12-18T20:02:27;20.50;;;10.13;;
30337;SDS011;17143;51.888;5.408;2022-12-18T20:17:29;24.47;;;10.77;;
30337;SDS011;17143;51.888;5.408;2022-12-18T20:32:31;22.87;;;10.83;;
30337;SDS011;17143;51.888;5.408;2022-12-18T20:47:33;19.73;;;9.73;;
30337;SDS011;17143;51.888;5.408;2022-12-18T21:02:35;21.00;;;9.50;;
30337;SDS011;17143;51.888;5.408;2022-12-18T21:17:37;21.93;;;10.00;;
30337;SDS011;17143;51.888;5.408;2022-12-18T21:32:39;22.17;;;9.87;;
30337;SDS011;17143;51.888;5.408;2022-12-18T21:47:41;14.07;;;6.77;;
30337;SDS011;17143;51.888;5.408;2022-12-18T22:02:43;21.93;;;10.13;;
30337;SDS011;17143;51.888;5.408;2022-12-18T22:17:45;15.53;;;8.67;;
30337;SDS011;17143;51.888;5.408;2022-12-18T22:32:47;20.53;;;8.83;;
30337;SDS011;17143;51.888;5.408;2022-12-18T22:47:49;12.17;;;6.97;;
30337;SDS011;17143;51.888;5.408;2022-12-18T23:02:52;14.93;;;9.00;;
30337;SDS011;17143;51.888;5.408;2022-12-18T23:17:54;17.40;;;9.87;;
30337;SDS011;17143;51.888;5.408;2022-12-18T23:32:57;18.27;;;10.60;;
30337;SDS011;17143;51.888;5.408;2022-12-18T23:47:59;15.13;;;9.10;;
